Time;durP1;ratioP1;P1;durP2;ratioP2;P2;SDS_P1;SDS_P2;PMS_P1;PMS_P2;Temp;Humidity;BMP_temperature;BMP_pressure;BME280_temperature;BME280_humidity;BME280_pressure;Samples;Min_cycle;Max_cycle;Signal;HPM_P1;HPM_P2
2023/11/03 00:02:08;;;;;;;6.67;1.00;;;6.80;99.90;;;;;;5044448;28;20451;-68
2023/11/03 00:04:36;;;;;;;6.10;1.10;;;6.70;99.90;;;;;;5036565;28;20467;-67
2023/11/03 00:07:05;;;;;;;6.47;0.87;;;6.60;99.90;;;;;;5038912;28;20469;-67
2023/11/03 00:09:33;;;;;;;6.77;1.03;;;6.40;99.90;;;;;;5039854;28;20582;-66
2023/11/03 00:12:03;;;;;;;9.20;0.90;;;6.30;99.90;;;;;;5041908;28;20494;-67
2023/11/03 00:14:31;;;;;;;8.43;1.20;;;6.20;99.90;;;;;;5036239;28;20864;-68
2023/11/03 00:16:59;;;;;;;9.50;0.93;;;6.10;99.90;;;;;;5046988;28;20531;-67
2023/11/03 00:19:28;;;;;;;6.53;0.90;;;6.00;99.90;;;;;;5047932;28;20452;-67
2023/11/03 00:21:57;;;;;;;7.20;1.10;;;5.90;99.90;;;;;;5043965;28;20987;-66
2023/11/03 00:24:25;;;;;;;9.20;1.07;;;6.00;99.90;;;;;;5041043;28;20531;-66
2023/11/03 00:26:54;;;;;;;5.90;0.80;;;6.00;99.90;;;;;;5032565;28;20441;-66
2023/11/03 00:29:24;;;;;;;6.17;0.80;;;6.00;99.90;;;;;;5037946;28;20473;-68
2023/11/03 00:31:52;;;;;;;6.43;1.00;;;6.10;99.90;;;;;;5031807;28;20540;-66
2023/11/03 00:34:20;;;;;;;6.20;0.87;;;6.30;99.90;;;;;;5042975;28;20437;-67
2023/11/03 00:36:49;;;;;;;9.13;2.30;;;6.40;99.90;;;;;;5037364;28;20545;-67
2023/11/03 00:39:18;;;;;;;8.43;0.93;;;6.30;99.90;;;;;;5037905;28;20429;-66
2023/11/03 00:41:49;;;;;;;8.20;0.87;;;6.20;99.90;;;;;;5037911;28;20534;-66
2023/11/03 00:44:18;;;;;;;6.53;0.80;;;6.00;99.90;;;;;;5036360;28;20450;-68
2023/11/03 00:46:49;;;;;;;7.33;0.90;;;5.90;99.90;;;;;;5037786;28;20504;-68
2023/11/03 00:49:18;;;;;;;6.67;0.70;;;5.80;99.90;;;;;;5042999;28;20875;-68
2023/11/03 00:51:47;;;;;;;9.23;1.20;;;5.60;99.90;;;;;;5035683;28;20592;-69
2023/11/03 00:54:15;;;;;;;7.20;1.13;;;5.50;99.90;;;;;;5036638;28;20475;-68
2023/11/03 00:56:43;;;;;;;6.90;0.80;;;5.60;99.90;;;;;;5044528;28;20525;-67
2023/11/03 00:59:11;;;;;;;8.13;1.00;;;5.50;99.90;;;;;;5046488;28;20443;-67
2023/11/03 01:01:39;;;;;;;6.73;1.00;;;5.40;99.90;;;;;;5045363;28;20459;-68
2023/11/03 01:04:11;;;;;;;8.77;1.20;;;5.40;99.90;;;;;;5034725;28;20458;-66
2023/11/03 01:06:39;;;;;;;6.60;0.77;;;5.50;99.90;;;;;;5048160;28;21099;-67
2023/11/03 01:09:09;;;;;;;7.20;0.80;;;5.50;99.90;;;;;;5048194;28;20472;-67
2023/11/03 01:11:37;;;;;;;7.30;0.90;;;5.40;99.90;;;;;;5048729;28;20493;-68
2023/11/03 01:14:06;;;;;;;6.67;0.90;;;5.50;99.90;;;;;;5049273;28;20524;-66
2023/11/03 01:16:34;;;;;;;8.90;1.30;;;5.40;99.90;;;;;;5043632;28;20593;-72
2023/11/03 01:19:04;;;;;;;7.83;1.23;;;5.40;99.90;;;;;;5047482;28;20488;-69
2023/11/03 01:21:34;;;;;;;8.53;1.20;;;5.50;99.90;;;;;;5047478;28;20461;-68
2023/11/03 01:24:02;;;;;;;8.20;1.30;;;5.50;99.90;;;;;;5047254;28;20461;-66
2023/11/03 01:26:31;;;;;;;7.70;1.10;;;5.60;99.90;;;;;;5044312;28;20567;-66
2023/11/03 01:28:59;;;;;;;7.30;1.07;;;5.50;99.90;;;;;;5045543;28;20928;-66
2023/11/03 01:31:27;;;;;;;6.80;1.20;;;5.50;99.90;;;;;;5048552;28;20462;-66
2023/11/03 01:33:55;;;;;;;8.17;1.17;;;5.60;99.90;;;;;;5048034;28;21084;-66
2023/11/03 01:36:23;;;;;;;6.93;1.00;;;5.70;99.90;;;;;;5047865;28;20479;-66
2023/11/03 01:38:52;;;;;;;8.10;1.43;;;5.80;99.90;;;;;;5048198;28;20453;-66
2023/11/03 01:41:20;;;;;;;11.47;1.47;;;5.80;99.90;;;;;;5048300;28;20486;-69
2023/11/03 01:44:03;;;;;;;7.23;0.80;;;5.80;99.90;;;;;;5046062;28;20535;-66
2023/11/03 01:46:31;;;;;;;6.93;1.10;;;5.80;99.90;;;;;;5041504;28;20477;-68
2023/11/03 01:48:59;;;;;;;8.67;1.10;;;5.80;99.90;;;;;;5048173;28;21023;-67
2023/11/03 01:51:27;;;;;;;6.93;1.03;;;5.70;99.90;;;;;;5052527;28;20446;-67
2023/11/03 01:53:56;;;;;;;7.03;1.10;;;5.60;99.90;;;;;;5049667;28;20464;-68
2023/11/03 01:56:25;;;;;;;9.50;1.47;;;5.50;99.90;;;;;;5046974;28;20920;-68
2023/11/03 01:58:54;;;;;;;7.10;1.17;;;5.40;99.90;;;;;;5040103;28;20684;-66
2023/11/03 02:01:23;;;;;;;8.13;1.20;;;5.40;99.90;;;;;;5047814;28;20992;-67
2023/11/03 02:03:51;;;;;;;8.10;1.30;;;5.40;99.90;;;;;;5047349;28;20459;-67
2023/11/03 02:06:20;;;;;;;7.53;1.27;;;5.50;99.90;;;;;;5047985;28;20480;-69
2023/11/03 02:08:49;;;;;;;7.20;1.30;;;5.30;99.90;;;;;;5047868;28;20440;-67
2023/11/03 02:11:26;;;;;;;9.03;1.10;;;5.40;99.90;;;;;;5047489;28;20525;-67
2023/11/03 02:13:55;;;;;;;7.20;1.20;;;5.30;99.90;;;;;;5041242;28;20451;-67
2023/11/03 02:16:23;;;;;;;7.33;1.30;;;5.30;99.90;;;;;;5035878;28;20463;-67
2023/11/03 02:18:51;;;;;;;7.10;1.30;;;5.20;99.90;;;;;;5039666;28;20529;-67
2023/11/03 02:21:19;;;;;;;9.07;1.13;;;5.10;99.90;;;;;;5047699;28;20832;-68
2023/11/03 02:23:49;;;;;;;6.40;1.00;;;5.00;99.90;;;;;;5044588;28;20979;-67
2023/11/03 02:26:17;;;;;;;8.50;1.20;;;4.90;99.90;;;;;;5039283;28;20458;-67
2023/11/03 02:28:45;;;;;;;10.77;1.50;;;4.90;99.90;;;;;;5047340;28;20474;-67
2023/11/03 02:31:12;;;;;;;7.13;1.17;;;5.00;99.90;;;;;;5047053;28;20465;-67
2023/11/03 02:33:40;;;;;;;7.37;1.00;;;4.90;99.90;;;;;;5043939;28;20461;-67
2023/11/03 02:36:09;;;;;;;8.37;1.23;;;4.80;99.90;;;;;;5048040;28;20506;-68
2023/11/03 02:38:37;;;;;;;7.30;1.17;;;4.80;99.90;;;;;;5046742;28;20471;-67
2023/11/03 02:41:07;;;;;;;8.30;1.40;;;4.70;99.90;;;;;;5046041;28;20459;-68
2023/11/03 02:43:35;;;;;;;8.73;1.83;;;4.60;99.90;;;;;;5047247;28;20470;-67
2023/11/03 02:46:04;;;;;;;7.77;1.60;;;4.60;99.90;;;;;;5046141;28;20561;-68
2023/11/03 02:48:32;;;;;;;7.43;1.30;;;4.60;99.90;;;;;;5046356;28;20506;-67
2023/11/03 02:51:00;;;;;;;7.30;1.20;;;4.70;99.90;;;;;;5045617;28;20913;-70
2023/11/03 02:53:28;;;;;;;8.07;1.67;;;4.70;99.90;;;;;;5045867;28;20564;-68
2023/11/03 02:55:56;;;;;;;10.43;1.60;;;4.80;99.90;;;;;;5040486;28;20477;-68
2023/11/03 02:58:28;;;;;;;8.03;1.27;;;4.90;99.90;;;;;;5046724;28;20477;-70
2023/11/03 03:00:56;;;;;;;8.40;1.60;;;4.90;99.90;;;;;;5041427;28;20503;-67
2023/11/03 03:03:24;;;;;;;8.53;1.50;;;4.80;99.90;;;;;;5039610;28;20871;-67
2023/11/03 03:05:52;;;;;;;8.07;1.50;;;4.80;99.90;;;;;;5045862;28;21033;-70
2023/11/03 03:08:20;;;;;;;7.70;1.30;;;4.70;99.90;;;;;;5038915;28;20512;-68
2023/11/03 03:10:48;;;;;;;8.53;1.40;;;4.60;99.90;;;;;;5046519;28;20483;-68
2023/11/03 03:13:16;;;;;;;7.93;1.40;;;4.70;99.90;;;;;;5049939;28;20556;-68
2023/11/03 03:15:45;;;;;;;8.30;1.10;;;4.70;99.90;;;;;;5050025;28;20474;-69
2023/11/03 03:18:13;;;;;;;8.30;1.30;;;4.70;99.90;;;;;;5045734;28;20458;-68
2023/11/03 03:20:41;;;;;;;8.97;1.67;;;4.70;99.90;;;;;;5047162;28;20469;-68
2023/11/03 03:23:09;;;;;;;6.37;1.30;;;4.80;99.90;;;;;;5050367;28;20526;-68
2023/11/03 03:25:37;;;;;;;7.37;1.50;;;4.70;99.90;;;;;;5050230;28;20569;-68
2023/11/03 03:28:05;;;;;;;8.70;1.30;;;4.70;99.90;;;;;;5048966;28;20476;-67
2023/11/03 03:30:33;;;;;;;9.93;1.57;;;4.80;99.90;;;;;;5050371;28;20481;-68
2023/11/03 03:33:02;;;;;;;7.40;1.70;;;4.80;99.90;;;;;;5050017;28;20559;-68
2023/11/03 03:35:30;;;;;;;10.87;2.40;;;4.90;99.90;;;;;;5050464;28;21007;-68
2023/11/03 03:37:58;;;;;;;10.27;1.80;;;5.00;99.90;;;;;;5046562;28;20498;-68
2023/11/03 03:40:26;;;;;;;8.13;2.00;;;5.10;99.90;;;;;;5050094;28;20469;-67
2023/11/03 03:42:56;;;;;;;10.97;2.77;;;5.20;99.90;;;;;;5049730;28;20470;-67
2023/11/03 03:45:24;;;;;;;11.60;2.20;;;5.30;99.90;;;;;;5050199;28;20514;-67
2023/11/03 03:47:52;;;;;;;8.00;1.90;;;5.30;99.90;;;;;;5050821;28;20532;-68
2023/11/03 03:50:22;;;;;;;8.47;2.10;;;5.30;99.90;;;;;;5049494;28;20477;-68
2023/11/03 03:52:50;;;;;;;9.73;2.70;;;5.20;99.90;;;;;;5049139;28;20500;-68
2023/11/03 03:55:18;;;;;;;9.63;2.33;;;5.20;99.90;;;;;;5049906;28;20461;-68
2023/11/03 03:57:48;;;;;;;9.50;2.07;;;5.10;99.90;;;;;;5050280;28;20453;-68
2023/11/03 04:00:18;;;;;;;7.50;1.27;;;5.20;99.90;;;;;;5042317;28;20497;-68
2023/11/03 04:02:46;;;;;;;8.80;1.20;;;5.30;99.90;;;;;;5049822;28;20478;-68
2023/11/03 04:05:14;;;;;;;8.43;1.77;;;5.20;99.90;;;;;;5048409;28;20477;-69
2023/11/03 04:07:44;;;;;;;7.93;1.87;;;5.20;99.90;;;;;;5043545;28;20569;-68
2023/11/03 04:10:12;;;;;;;8.23;2.00;;;5.40;99.90;;;;;;5048177;28;20485;-68
2023/11/03 04:12:40;;;;;;;14.00;2.70;;;5.60;99.90;;;;;;5050307;28;20548;-69
2023/11/03 04:15:09;;;;;;;9.63;2.40;;;5.80;99.90;;;;;;5048547;28;20487;-67
2023/11/03 04:17:37;;;;;;;10.77;1.90;;;5.80;99.90;;;;;;5050006;28;20450;-67
2023/11/03 04:20:06;;;;;;;8.53;1.70;;;5.90;99.90;;;;;;5044601;28;20757;-68
2023/11/03 04:22:34;;;;;;;12.23;2.40;;;6.00;99.90;;;;;;5048900;28;20451;-70
2023/11/03 04:25:04;;;;;;;9.30;2.47;;;6.10;99.90;;;;;;5047986;28;20476;-68
2023/11/03 04:27:33;;;;;;;11.50;2.97;;;6.20;99.90;;;;;;5047154;28;20506;-68
2023/11/03 04:30:00;;;;;;;13.50;3.20;;;6.30;99.90;;;;;;5040558;28;20473;-68
2023/11/03 04:32:28;;;;;;;8.97;1.90;;;6.40;99.90;;;;;;5049386;28;20905;-68
2023/11/03 04:34:56;;;;;;;8.90;2.53;;;6.40;99.90;;;;;;5049216;28;20472;-67
2023/11/03 04:37:24;;;;;;;9.97;2.87;;;6.40;99.90;;;;;;5049246;28;20465;-69
2023/11/03 04:39:52;;;;;;;9.40;2.70;;;6.40;99.90;;;;;;5041555;28;20899;-68
2023/11/03 04:42:22;;;;;;;10.63;3.23;;;6.50;99.90;;;;;;5049467;28;20947;-67
2023/11/03 04:44:50;;;;;;;9.60;2.40;;;6.50;99.90;;;;;;5047824;28;20504;-68
2023/11/03 04:47:18;;;;;;;11.50;2.70;;;6.50;99.90;;;;;;5048991;28;21082;-67
2023/11/03 04:49:46;;;;;;;10.33;2.30;;;6.50;99.90;;;;;;5049726;28;20963;-68
2023/11/03 04:52:14;;;;;;;10.10;4.77;;;6.50;99.90;;;;;;5046794;28;20558;-71
2023/11/03 04:54:42;;;;;;;11.30;2.97;;;6.50;99.90;;;;;;5043606;28;20476;-68
2023/11/03 04:57:10;;;;;;;12.43;2.70;;;6.50;99.90;;;;;;5049168;28;21300;-67
2023/11/03 04:59:40;;;;;;;10.33;2.50;;;6.60;99.90;;;;;;5049958;28;20490;-68
2023/11/03 05:02:08;;;;;;;11.53;2.90;;;6.70;99.90;;;;;;5049332;28;21039;-68
2023/11/03 05:04:37;;;;;;;8.40;1.97;;;6.70;99.90;;;;;;5048808;28;20454;-69
2023/11/03 05:07:05;;;;;;;13.77;3.00;;;6.70;99.90;;;;;;5045535;28;20953;-70
2023/11/03 05:09:34;;;;;;;10.33;2.37;;;6.70;99.90;;;;;;5043276;28;21005;-68
2023/11/03 05:12:04;;;;;;;9.20;2.30;;;6.80;99.90;;;;;;5048232;28;20537;-68
2023/11/03 05:14:32;;;;;;;8.47;1.97;;;6.90;99.90;;;;;;5049946;28;20493;-68
2023/11/03 05:17:01;;;;;;;11.03;2.07;;;6.90;99.90;;;;;;5049027;28;20456;-68
2023/11/03 05:19:29;;;;;;;9.67;2.10;;;7.00;99.90;;;;;;5048746;28;20451;-68
2023/11/03 05:21:57;;;;;;;13.33;2.13;;;7.00;99.90;;;;;;5041132;28;20513;-68
2023/11/03 05:24:25;;;;;;;10.00;1.93;;;7.00;99.90;;;;;;5047799;28;20455;-70
2023/11/03 05:26:53;;;;;;;8.03;1.80;;;7.10;99.90;;;;;;5048826;28;20452;-67
2023/11/03 05:29:22;;;;;;;7.90;1.63;;;7.10;99.90;;;;;;5048773;28;21128;-67
2023/11/03 05:31:55;;;;;;;7.67;1.70;;;7.10;99.90;;;;;;5054818;28;20561;-68
2023/11/03 05:34:24;;;;;;;11.03;2.60;;;7.10;99.90;;;;;;5047536;28;20571;-67
2023/11/03 05:36:53;;;;;;;8.17;2.17;;;7.10;99.90;;;;;;5046731;28;20892;-67
2023/11/03 05:39:21;;;;;;;10.43;3.00;;;7.20;99.90;;;;;;5040064;28;20502;-68
2023/11/03 05:41:49;;;;;;;7.40;1.70;;;7.40;99.90;;;;;;5041027;28;20465;-70
2023/11/03 05:44:17;;;;;;;9.20;2.00;;;7.40;99.90;;;;;;5046829;28;20969;-68
2023/11/03 05:46:45;;;;;;;10.70;2.60;;;7.40;99.90;;;;;;5048447;28;20468;-68
2023/11/03 05:49:13;;;;;;;8.67;2.13;;;7.30;99.90;;;;;;5048249;28;21077;-68
2023/11/03 05:51:43;;;;;;;9.30;2.13;;;7.30;99.90;;;;;;5048584;28;20568;-68
2023/11/03 05:54:11;;;;;;;8.90;1.70;;;7.30;99.90;;;;;;5047418;28;20464;-71
2023/11/03 05:56:38;;;;;;;12.53;2.07;;;7.30;99.90;;;;;;5046351;28;20879;-68
2023/11/03 05:59:06;;;;;;;7.33;1.90;;;7.40;99.90;;;;;;5048420;28;20482;-68
2023/11/03 06:01:35;;;;;;;8.60;1.73;;;7.40;99.90;;;;;;5048368;28;20436;-68
2023/11/03 06:04:03;;;;;;;11.07;2.10;;;7.40;99.90;;;;;;5047431;28;20470;-68
2023/11/03 06:06:31;;;;;;;11.27;2.33;;;7.50;99.90;;;;;;5048255;28;20547;-68
2023/11/03 06:09:01;;;;;;;8.77;1.90;;;7.50;99.90;;;;;;5047815;28;20476;-69
2023/11/03 06:11:29;;;;;;;9.40;2.50;;;7.50;99.90;;;;;;5046293;28;20488;-68
2023/11/03 06:13:57;;;;;;;11.50;2.07;;;7.50;99.90;;;;;;5049711;28;20530;-68
2023/11/03 06:16:25;;;;;;;9.10;2.10;;;7.50;99.90;;;;;;5047859;28;20471;-68
2023/11/03 06:18:53;;;;;;;8.83;2.00;;;7.50;99.90;;;;;;5048070;28;20468;-68
2023/11/03 06:21:21;;;;;;;10.23;3.97;;;7.50;99.90;;;;;;5047866;28;20444;-68
2023/11/03 06:23:49;;;;;;;9.53;2.13;;;7.50;99.90;;;;;;5047276;28;21346;-68
2023/11/03 06:26:18;;;;;;;8.13;2.00;;;7.50;99.90;;;;;;5047946;28;20464;-67
2023/11/03 06:28:46;;;;;;;8.90;1.90;;;7.50;99.90;;;;;;5047021;28;20490;-67
2023/11/03 06:31:14;;;;;;;9.20;1.90;;;7.50;99.90;;;;;;5047550;28;20995;-68
2023/11/03 06:33:45;;;;;;;9.37;2.20;;;7.40;99.90;;;;;;5042521;28;20503;-67
2023/11/03 06:36:13;;;;;;;11.23;2.80;;;7.40;99.90;;;;;;5044115;28;20471;-67
2023/11/03 06:38:41;;;;;;;9.23;1.80;;;7.40;99.90;;;;;;5043721;28;20906;-68
2023/11/03 06:41:11;;;;;;;8.80;2.03;;;7.40;99.90;;;;;;5045782;28;20569;-68
2023/11/03 06:43:41;;;;;;;9.10;1.57;;;7.30;99.90;;;;;;5047120;28;20476;-67
2023/11/03 06:46:12;;;;;;;9.00;1.60;;;7.50;99.90;;;;;;5048857;28;20476;-68
2023/11/03 06:48:40;;;;;;;8.93;1.70;;;7.50;99.90;;;;;;5051410;28;20472;-67
2023/11/03 06:51:11;;;;;;;11.27;1.50;;;7.50;99.90;;;;;;5048229;28;20476;-68
2023/11/03 06:53:39;;;;;;;7.17;1.30;;;7.50;99.90;;;;;;5050336;28;20468;-68
2023/11/03 06:56:08;;;;;;;8.47;1.53;;;7.40;99.90;;;;;;5051252;28;20542;-68
2023/11/03 06:58:36;;;;;;;9.40;2.83;;;7.30;99.90;;;;;;5050972;28;21057;-68
2023/11/03 07:01:05;;;;;;;7.57;1.23;;;7.30;99.90;;;;;;5049383;28;20476;-68
2023/11/03 07:03:33;;;;;;;7.30;1.40;;;7.30;99.90;;;;;;5050603;28;20492;-68
2023/11/03 07:06:03;;;;;;;7.40;1.40;;;7.40;99.90;;;;;;5050202;28;20460;-70
2023/11/03 07:08:31;;;;;;;7.77;1.10;;;7.40;99.90;;;;;;5049367;28;20487;-69
2023/11/03 07:10:59;;;;;;;10.23;1.10;;;7.50;99.90;;;;;;5047289;28;20962;-69
2023/11/03 07:13:28;;;;;;;8.30;1.20;;;7.50;99.90;;;;;;5049690;28;20575;-69
2023/11/03 07:15:56;;;;;;;8.07;1.37;;;7.50;99.90;;;;;;5049073;28;20471;-64
2023/11/03 07:18:26;;;;;;;6.60;1.00;;;7.50;99.90;;;;;;5050305;28;20525;-68
2023/11/03 07:20:54;;;;;;;7.50;1.13;;;7.50;99.90;;;;;;5050936;28;20481;-68
2023/11/03 07:23:22;;;;;;;8.60;1.30;;;7.50;99.90;;;;;;5047299;28;20846;-67
2023/11/03 07:25:50;;;;;;;8.60;1.30;;;7.50;99.90;;;;;;5050717;28;20922;-67
2023/11/03 07:28:18;;;;;;;9.40;1.07;;;7.50;99.90;;;;;;5051040;28;20496;-66
2023/11/03 07:30:46;;;;;;;5.70;0.73;;;7.50;99.90;;;;;;5047154;28;20469;-67
2023/11/03 07:33:18;;;;;;;9.67;1.30;;;7.60;99.90;;;;;;5048711;28;20571;-68
2023/11/03 07:35:48;;;;;;;7.33;1.10;;;7.60;99.90;;;;;;5049421;28;20472;-68
2023/11/03 07:38:17;;;;;;;6.87;1.27;;;7.60;99.90;;;;;;5050987;28;20448;-68
2023/11/03 07:40:48;;;;;;;8.40;1.13;;;7.70;99.90;;;;;;5050761;28;20902;-69
2023/11/03 07:43:16;;;;;;;6.93;0.87;;;7.70;99.90;;;;;;5039745;28;21039;-69
2023/11/03 07:45:44;;;;;;;8.37;1.17;;;7.70;99.90;;;;;;5042841;28;20498;-69
2023/11/03 07:48:12;;;;;;;6.70;1.00;;;7.80;99.90;;;;;;5044459;28;20462;-69
2023/11/03 07:50:40;;;;;;;7.53;1.07;;;7.90;99.90;;;;;;5038348;28;20534;-69
2023/11/03 07:53:09;;;;;;;7.87;1.43;;;8.00;99.90;;;;;;5039065;28;20483;-69
2023/11/03 07:55:37;;;;;;;9.00;1.53;;;8.00;99.90;;;;;;5045269;28;20471;-69
2023/11/03 07:58:05;;;;;;;6.20;1.07;;;8.00;99.90;;;;;;5047727;28;20444;-69
2023/11/03 08:00:34;;;;;;;7.97;1.20;;;8.10;99.90;;;;;;5048236;28;20437;-70
2023/11/03 08:03:05;;;;;;;8.67;1.07;;;8.10;99.90;;;;;;5044715;28;20539;-69
2023/11/03 08:05:34;;;;;;;7.60;0.77;;;8.20;99.90;;;;;;5046599;28;20468;-69
2023/11/03 08:08:02;;;;;;;9.70;1.30;;;8.20;99.90;;;;;;5048006;28;20455;-67
2023/11/03 08:10:32;;;;;;;8.03;1.13;;;8.20;99.90;;;;;;5044951;28;20460;-67
2023/11/03 08:13:00;;;;;;;8.70;1.33;;;8.30;99.90;;;;;;5048849;28;20530;-67
2023/11/03 08:15:28;;;;;;;8.87;1.07;;;8.40;99.90;;;;;;5046275;28;20466;-68
2023/11/03 08:17:56;;;;;;;8.70;1.83;;;8.40;99.90;;;;;;5044605;28;20450;-68
2023/11/03 08:20:24;;;;;;;7.50;1.30;;;8.50;99.90;;;;;;5048674;28;20447;-69
2023/11/03 08:22:52;;;;;;;8.60;1.20;;;8.60;99.90;;;;;;5047082;28;20483;-68
2023/11/03 08:25:20;;;;;;;7.40;1.03;;;8.70;99.90;;;;;;5048808;28;20465;-68
2023/11/03 08:27:50;;;;;;;7.50;1.23;;;8.80;99.90;;;;;;5047818;28;20443;-69
2023/11/03 08:30:18;;;;;;;6.50;1.20;;;8.90;99.90;;;;;;5049867;28;20470;-68
2023/11/03 08:32:48;;;;;;;7.27;1.37;;;9.00;99.90;;;;;;5049793;28;20493;-69
2023/11/03 08:35:17;;;;;;;7.13;1.00;;;9.20;99.90;;;;;;5040315;28;20525;-69
2023/11/03 08:37:45;;;;;;;6.57;0.90;;;9.20;99.90;;;;;;5046031;28;20492;-69
2023/11/03 08:40:16;;;;;;;9.50;1.20;;;9.50;99.90;;;;;;5049165;28;20501;-70
2023/11/03 08:42:45;;;;;;;9.87;1.40;;;9.50;99.90;;;;;;5055084;28;20451;-71
2023/11/03 08:45:15;;;;;;;8.67;1.13;;;9.60;99.90;;;;;;5065207;28;20494;-67
2023/11/03 08:47:43;;;;;;;10.23;1.10;;;9.80;99.90;;;;;;5066081;28;20448;-69
2023/11/03 08:50:11;;;;;;;5.83;1.00;;;9.80;99.90;;;;;;5046585;28;20453;-70
2023/11/03 08:52:40;;;;;;;7.80;1.27;;;9.80;99.90;;;;;;5039702;28;20487;-69
2023/11/03 08:55:08;;;;;;;7.70;1.20;;;9.80;99.90;;;;;;5047480;28;20642;-69
2023/11/03 08:57:38;;;;;;;7.47;1.20;;;9.90;99.90;;;;;;5048643;28;20455;-70
2023/11/03 09:00:09;;;;;;;7.87;1.40;;;9.90;99.90;;;;;;5066789;28;20538;-70
2023/11/03 09:02:39;;;;;;;6.33;1.50;;;9.90;99.90;;;;;;5062860;28;20500;-68
2023/11/03 09:05:09;;;;;;;7.90;1.03;;;10.00;99.90;;;;;;5049061;28;20489;-68
2023/11/03 09:07:37;;;;;;;7.77;1.17;;;10.00;99.90;;;;;;5048092;28;20458;-67
2023/11/03 09:10:06;;;;;;;6.90;1.07;;;9.90;99.90;;;;;;5046602;28;20451;-68
2023/11/03 09:12:34;;;;;;;11.23;1.50;;;9.80;99.90;;;;;;5043996;28;20602;-70
2023/11/03 09:15:03;;;;;;;7.47;1.17;;;9.90;99.90;;;;;;5048466;28;20463;-68
2023/11/03 09:17:32;;;;;;;7.80;1.40;;;10.00;99.90;;;;;;5046786;28;20450;-68
2023/11/03 09:20:04;;;;;;;7.00;1.20;;;10.00;99.90;;;;;;5042880;28;20449;-68
2023/11/03 09:22:32;;;;;;;6.20;0.80;;;9.80;99.90;;;;;;5047354;28;20855;-67
2023/11/03 09:25:05;;;;;;;6.10;0.80;;;9.80;99.90;;;;;;5047435;28;20465;-68
2023/11/03 09:27:34;;;;;;;7.30;1.03;;;9.90;99.90;;;;;;5048393;28;20430;-67
2023/11/03 09:30:04;;;;;;;7.70;1.33;;;9.90;99.90;;;;;;5048043;28;20529;-70
2023/11/03 09:32:33;;;;;;;8.33;1.10;;;10.00;99.90;;;;;;5044929;28;20469;-68
2023/11/03 09:35:02;;;;;;;6.03;0.97;;;9.90;99.90;;;;;;5046238;28;20471;-67
2023/11/03 09:37:30;;;;;;;6.97;1.03;;;9.90;99.90;;;;;;5046039;28;21011;-68
2023/11/03 09:39:58;;;;;;;8.47;0.80;;;9.80;99.90;;;;;;5047447;28;20449;-68
2023/11/03 09:42:27;;;;;;;7.50;1.00;;;9.80;99.90;;;;;;5046775;28;20448;-68
2023/11/03 09:44:57;;;;;;;6.13;0.70;;;9.80;99.90;;;;;;5045954;28;20522;-69
2023/11/03 09:47:26;;;;;;;8.53;1.20;;;9.90;99.90;;;;;;5046483;28;20526;-68
2023/11/03 09:49:57;;;;;;;7.10;1.10;;;9.90;99.90;;;;;;5046284;28;20527;-68
2023/11/03 09:52:33;;;;;;;6.53;0.90;;;10.10;99.90;;;;;;5046555;28;20476;-68
2023/11/03 09:55:05;;;;;;;6.10;0.90;;;10.20;99.90;;;;;;5043837;28;21052;-68
2023/11/03 09:57:37;;;;;;;8.50;1.10;;;10.40;99.90;;;;;;5044491;28;20533;-68
2023/11/03 10:00:09;;;;;;;5.97;1.10;;;10.40;99.90;;;;;;5047409;28;20572;-68
2023/11/03 10:02:37;;;;;;;8.83;1.00;;;10.40;99.90;;;;;;5047456;28;20498;-67
2023/11/03 10:05:07;;;;;;;6.40;0.90;;;10.50;99.90;;;;;;5046706;28;20474;-67
2023/11/03 10:07:37;;;;;;;6.43;0.80;;;10.60;99.90;;;;;;5047391;28;20443;-68
2023/11/03 10:10:08;;;;;;;7.40;1.10;;;10.80;99.90;;;;;;5046028;28;20439;-68
2023/11/03 10:12:38;;;;;;;6.73;0.93;;;10.80;99.90;;;;;;5045827;28;20516;-66
2023/11/03 10:15:12;;;;;;;6.13;0.83;;;10.80;99.90;;;;;;5045707;28;20524;-68
2023/11/03 10:17:44;;;;;;;5.83;0.77;;;10.70;99.90;;;;;;5044611;28;21245;-68
2023/11/03 10:20:12;;;;;;;6.40;1.37;;;10.70;99.90;;;;;;5045110;28;20549;-68
2023/11/03 10:22:42;;;;;;;6.27;1.07;;;10.60;99.90;;;;;;5046821;28;20447;-67
2023/11/03 10:25:10;;;;;;;6.33;1.07;;;10.50;99.90;;;;;;5046251;28;20497;-68
2023/11/03 10:27:38;;;;;;;6.40;1.07;;;10.40;99.90;;;;;;5048488;28;20454;-68
2023/11/03 10:30:09;;;;;;;6.00;0.80;;;10.40;99.90;;;;;;5047718;28;20856;-69
2023/11/03 10:32:37;;;;;;;5.70;0.63;;;10.40;99.90;;;;;;5044695;28;20466;-68
2023/11/03 10:35:06;;;;;;;6.80;0.80;;;10.60;99.90;;;;;;5046265;28;20511;-69
2023/11/03 10:37:36;;;;;;;5.87;0.73;;;10.70;99.90;;;;;;5047279;28;20444;-68
2023/11/03 10:40:10;;;;;;;6.73;0.70;;;10.90;99.90;;;;;;5044488;28;20529;-69
2023/11/03 10:42:40;;;;;;;8.80;1.00;;;11.00;99.90;;;;;;5045098;28;20445;-68
2023/11/03 10:45:10;;;;;;;6.20;0.70;;;11.00;99.90;;;;;;5044858;28;20463;-68
2023/11/03 10:47:50;;;;;;;8.10;0.73;;;11.00;99.90;;;;;;5047018;28;20458;-69
2023/11/03 10:50:20;;;;;;;6.83;0.60;;;10.80;99.90;;;;;;5045945;28;20457;-69
2023/11/03 10:52:58;;;;;;;6.20;0.70;;;10.70;99.90;;;;;;5045722;28;20508;-68
2023/11/03 10:55:34;;;;;;;8.67;0.67;;;10.50;99.90;;;;;;5047255;28;20548;-68
2023/11/03 10:58:03;;;;;;;5.70;0.57;;;10.50;99.90;;;;;;5043583;28;20508;-69
2023/11/03 11:00:35;;;;;;;6.10;0.57;;;10.40;99.90;;;;;;5045950;28;21285;-69
2023/11/03 11:03:14;;;;;;;5.60;0.70;;;10.50;99.90;;;;;;5046647;28;20430;-67
2023/11/03 11:05:51;;;;;;;5.90;0.80;;;10.50;99.90;;;;;;5043159;28;20498;-68
2023/11/03 11:08:21;;;;;;;5.83;0.50;;;10.60;99.90;;;;;;5044293;28;20954;-68
2023/11/03 11:10:51;;;;;;;5.80;0.50;;;10.80;99.90;;;;;;5043286;28;20465;-69
2023/11/03 11:13:21;;;;;;;6.43;0.60;;;10.70;99.90;;;;;;5045113;28;21453;-68
2023/11/03 11:16:08;;;;;;;8.20;0.60;;;10.70;99.90;;;;;;5042749;28;20490;-68
2023/11/03 11:18:46;;;;;;;6.40;0.53;;;10.60;99.90;;;;;;5045703;28;20446;-69
2023/11/03 11:21:19;;;;;;;5.70;0.60;;;10.50;99.90;;;;;;5046254;28;20789;-68
2023/11/03 11:23:47;;;;;;;5.90;0.60;;;10.40;99.90;;;;;;5042874;28;20533;-68
2023/11/03 11:26:20;;;;;;;7.10;0.70;;;10.50;99.90;;;;;;5045834;28;20467;-69
2023/11/03 11:28:51;;;;;;;6.53;0.57;;;10.60;99.90;;;;;;4960309;28;20436;-68
2023/11/03 11:31:43;;;;;;;7.57;0.90;;;10.60;99.90;;;;;;4965003;28;21308;-69
2023/11/03 11:34:14;;;;;;;15.47;5.63;;;10.70;99.90;;;;;;4966994;28;20929;-69
2023/11/03 11:36:43;;;;;;;11.40;2.90;;;10.60;99.90;;;;;;4968689;28;20557;-68
2023/11/03 11:39:13;;;;;;;6.90;0.77;;;10.60;99.90;;;;;;4968616;28;20541;-69
2023/11/03 11:41:53;;;;;;;6.17;0.60;;;10.70;99.90;;;;;;4968587;28;20959;-68
2023/11/03 11:44:23;;;;;;;5.80;0.87;;;10.70;99.90;;;;;;4968074;28;20529;-69
2023/11/03 11:46:57;;;;;;;6.27;0.77;;;10.70;99.90;;;;;;5002137;28;20451;-69
2023/11/03 11:49:27;;;;;;;6.33;0.70;;;10.70;99.90;;;;;;5051317;28;20446;-69
2023/11/03 11:51:58;;;;;;;6.23;0.80;;;10.70;99.90;;;;;;5050009;28;20463;-69
2023/11/03 11:54:26;;;;;;;6.23;0.70;;;10.70;99.90;;;;;;5045206;28;20473;-68
2023/11/03 11:56:56;;;;;;;5.70;0.60;;;10.80;99.90;;;;;;5048744;28;20473;-69
2023/11/03 11:59:25;;;;;;;6.30;0.60;;;10.80;99.90;;;;;;5049283;28;20486;-69
2023/11/03 12:01:54;;;;;;;6.67;0.80;;;10.80;99.90;;;;;;5049472;28;20493;-69
2023/11/03 12:04:23;;;;;;;6.00;0.90;;;10.80;99.90;;;;;;5048698;28;20431;-68
2023/11/03 12:06:52;;;;;;;7.00;0.83;;;10.80;99.90;;;;;;5049791;28;20470;-71
2023/11/03 12:09:19;;;;;;;6.30;0.90;;;10.80;99.90;;;;;;5049151;28;21075;-70
2023/11/03 12:11:47;;;;;;;5.60;0.57;;;10.80;99.90;;;;;;5048588;28;20443;-70
2023/11/03 12:14:17;;;;;;;5.70;0.60;;;10.80;99.90;;;;;;5046534;28;20475;-71
2023/11/03 12:16:46;;;;;;;5.60;0.60;;;10.80;99.90;;;;;;5045754;28;20474;-69
2023/11/03 12:19:15;;;;;;;5.90;0.60;;;11.00;99.90;;;;;;5048497;28;20522;-69
2023/11/03 12:21:43;;;;;;;6.90;0.63;;;11.10;99.90;;;;;;5049206;28;20449;-70
2023/11/03 12:24:12;;;;;;;5.60;0.60;;;11.00;99.90;;;;;;5044602;28;20443;-70
2023/11/03 12:26:41;;;;;;;5.57;0.50;;;10.90;99.90;;;;;;5046094;28;20471;-69
2023/11/03 12:29:30;;;;;;;6.73;0.60;;;11.00;99.90;;;;;;5049311;28;20813;-68
2023/11/03 12:32:00;;;;;;;5.57;0.67;;;11.10;99.90;;;;;;5048030;28;20938;-68
2023/11/03 12:34:30;;;;;;;7.30;0.50;;;11.10;99.90;;;;;;5048630;28;20483;-69
2023/11/03 12:36:59;;;;;;;5.70;0.50;;;11.20;99.90;;;;;;5046935;28;20989;-69
2023/11/03 12:39:28;;;;;;;5.60;0.60;;;11.20;99.90;;;;;;5049505;28;20477;-67
2023/11/03 12:42:03;;;;;;;6.50;0.50;;;11.10;99.90;;;;;;5047461;28;20885;-70
2023/11/03 12:44:49;;;;;;;6.97;1.10;;;10.90;99.90;;;;;;5046616;28;20933;-68
2023/11/03 12:47:38;;;;;;;5.70;0.50;;;10.70;99.90;;;;;;5050129;28;20442;-68
2023/11/03 12:50:20;;;;;;;5.60;0.50;;;10.60;99.90;;;;;;5044196;28;20879;-68
2023/11/03 12:52:50;;;;;;;6.73;0.83;;;10.60;99.90;;;;;;5044211;28;20460;-68
2023/11/03 12:55:20;;;;;;;6.00;0.50;;;10.80;99.90;;;;;;5046935;28;20486;-69
2023/11/03 12:57:49;;;;;;;6.10;0.57;;;10.90;99.90;;;;;;5046431;28;20439;-67
2023/11/03 13:00:23;;;;;;;6.83;0.73;;;11.10;99.90;;;;;;5049135;28;20435;-68
2023/11/03 13:02:52;;;;;;;6.00;0.57;;;11.20;99.90;;;;;;5046246;28;20439;-70
2023/11/03 13:05:20;;;;;;;5.47;0.60;;;11.10;99.90;;;;;;5048496;28;20582;-69